Cruz das Almas, Brazil
Current Conditions -  °F | °C
As of 11:00 PM on Thursday 20 Nov 2014 (Local Time) from SBSV Reporting Station
Haze Haze  
Wind Chill: 75°   Ceiling: 1300
Heat Index: NA   Visibility: 3mi
Dew Point: NA   Wind: 6mph
Humidity: NA   Direction: 150°SSE
Pressure: 29.97"   Gusts: NA
Location:  12.67°S, 39.1°W
Report Text: SBSV 210200Z 15005KT 5000 BR SCT005 BKN013 FEW020TCU BKN070 24/22 Q1015
Loading
Personal Weather Stations






























Interactive Weather Map New forecast layout! Learn more

10-Day Weather Forecast

Advertisements
Track Severe Weather on mobile